createdAt,value
2022-10-26T00:01:14.994Z,21.95
2022-10-26T00:03:44.213Z,20.67
2022-10-26T00:06:21.438Z,18.90
2022-10-26T00:08:49.534Z,18.60
2022-10-26T00:11:17.578Z,19.50
2022-10-26T00:13:46.492Z,17.92
2022-10-26T00:16:16.615Z,18.60
2022-10-26T00:18:44.824Z,18.00
2022-10-26T00:21:12.691Z,18.15
2022-10-26T00:23:40.074Z,16.02
2022-10-26T00:26:10.907Z,18.20
2022-10-26T00:28:38.498Z,16.10
2022-10-26T00:31:08.964Z,16.27
2022-10-26T00:33:36.423Z,16.42
2022-10-26T00:36:04.464Z,16.67
2022-10-26T00:38:32.192Z,16.08
2022-10-26T00:40:59.432Z,16.58
2022-10-26T00:43:30.067Z,15.93
2022-10-26T00:45:59.716Z,16.00
2022-10-26T00:48:32.672Z,15.98
2022-10-26T00:51:02.956Z,15.55
2022-10-26T00:53:31.348Z,16.73
2022-10-26T00:55:59.215Z,15.95
2022-10-26T00:58:27.054Z,16.90
2022-10-26T01:00:57.554Z,18.25
2022-10-26T01:03:25.572Z,17.48
2022-10-26T01:05:55.568Z,18.10
2022-10-26T01:08:24.453Z,18.33
2022-10-26T01:10:52.337Z,17.77
2022-10-26T01:13:20.794Z,17.80
2022-10-26T01:16:09.261Z,19.80
2022-10-26T01:18:40.831Z,19.10
2022-10-26T01:21:33.930Z,21.40
2022-10-26T01:24:10.418Z,19.80
2022-10-26T01:26:59.354Z,19.60
2022-10-26T01:29:44.120Z,20.40
2022-10-26T01:32:27.590Z,20.95
2022-10-26T01:35:14.494Z,19.83
2022-10-26T01:38:04.803Z,19.50
2022-10-26T01:40:46.976Z,21.35
2022-10-26T01:43:15.768Z,21.35
2022-10-26T01:45:47.198Z,19.52
2022-10-26T01:48:19.131Z,22.02
2022-10-26T01:50:53.330Z,20.05
2022-10-26T01:53:21.486Z,21.20
2022-10-26T01:55:51.518Z,21.75
2022-10-26T01:58:48.063Z,20.83
2022-10-26T02:01:21.169Z,20.10
2022-10-26T02:04:10.174Z,22.15
2022-10-26T02:06:58.770Z,23.45
2022-10-26T02:09:33.662Z,22.25
2022-10-26T02:12:06.644Z,22.50
2022-10-26T02:15:09.247Z,21.42
2022-10-26T02:18:00.589Z,20.38
2022-10-26T02:20:33.637Z,21.55
2022-10-26T02:23:05.549Z,22.30
2022-10-26T02:25:36.072Z,21.70
2022-10-26T02:28:07.597Z,21.40
2022-10-26T02:30:36.496Z,22.05
2022-10-26T02:33:05.970Z,21.23
2022-10-26T02:35:36.726Z,20.98
2022-10-26T02:38:09.716Z,20.80
2022-10-26T02:40:38.871Z,22.33
2022-10-26T02:43:12.021Z,21.20
2022-10-26T02:45:44.751Z,21.92
2022-10-26T02:48:12.436Z,19.15
2022-10-26T02:50:59.840Z,22.38
2022-10-26T02:53:35.897Z,22.98
2022-10-26T02:56:16.608Z,25.42
2022-10-26T02:58:48.050Z,25.15
2022-10-26T03:01:15.994Z,25.23
2022-10-26T03:03:43.687Z,24.30
2022-10-26T03:06:10.866Z,22.60
2022-10-26T03:08:38.220Z,23.05
2022-10-26T03:11:06.319Z,23.42
2022-10-26T03:13:33.629Z,24.10
2022-10-26T03:16:00.840Z,23.90
2022-10-26T03:18:28.163Z,22.75
2022-10-26T03:20:55.296Z,23.77
2022-10-26T03:23:22.679Z,23.63
2022-10-26T03:25:49.938Z,23.92
2022-10-26T03:28:17.434Z,23.83
2022-10-26T03:30:44.688Z,23.67
2022-10-26T03:33:12.886Z,22.45
2022-10-26T03:35:40.182Z,23.20
2022-10-26T03:38:07.649Z,24.38
2022-10-26T03:40:36.215Z,20.90
2022-10-26T03:43:04.127Z,22.38
2022-10-26T03:45:31.383Z,23.25
2022-10-26T03:47:58.713Z,25.85
2022-10-26T03:50:26.037Z,24.48
2022-10-26T03:52:53.534Z,24.00
2022-10-26T03:55:20.900Z,23.50
2022-10-26T03:57:48.510Z,23.92
2022-10-26T04:00:17.867Z,24.20
2022-10-26T04:02:48.822Z,24.00
2022-10-26T04:05:16.845Z,25.70
2022-10-26T04:07:44.331Z,25.40
2022-10-26T04:10:11.587Z,24.20
2022-10-26T04:12:39.322Z,24.40
2022-10-26T04:15:07.517Z,26.80
2022-10-26T04:17:35.077Z,24.42
2022-10-26T04:20:02.374Z,26.27
2022-10-26T04:22:29.777Z,26.88
2022-10-26T04:24:57.128Z,25.52
2022-10-26T04:27:24.846Z,25.20
2022-10-26T04:29:52.953Z,24.23
2022-10-26T04:32:22.955Z,27.17
2022-10-26T04:34:50.246Z,25.60
2022-10-26T04:37:17.648Z,21.85
2022-10-26T04:39:44.828Z,24.02
2022-10-26T04:42:12.431Z,25.05
2022-10-26T04:44:39.610Z,23.83
2022-10-26T04:47:07.450Z,25.63
2022-10-26T04:49:34.829Z,22.77
2022-10-26T04:52:02.370Z,22.58
2022-10-26T04:54:29.555Z,23.25
2022-10-26T04:56:57.210Z,22.70
2022-10-26T04:59:25.466Z,22.65
2022-10-26T05:01:53.327Z,24.58
2022-10-26T05:04:21.064Z,22.35
2022-10-26T05:06:48.603Z,22.33
2022-10-26T05:09:15.864Z,21.83
2022-10-26T05:11:43.526Z,21.13
2022-10-26T05:14:10.705Z,21.80
2022-10-26T05:16:38.165Z,21.90
2022-10-26T05:19:05.337Z,21.83
2022-10-26T05:21:32.946Z,25.50
2022-10-26T05:24:00.227Z,23.02
2022-10-26T05:26:27.880Z,21.05
2022-10-26T05:28:55.131Z,20.98
2022-10-26T05:31:22.463Z,20.40
2022-10-26T05:33:52.911Z,21.70
2022-10-26T05:36:20.935Z,21.20
2022-10-26T05:38:48.075Z,21.65
2022-10-26T05:41:15.814Z,23.40
2022-10-26T05:43:43.070Z,23.00
2022-10-26T05:46:10.685Z,24.65
2022-10-26T05:48:38.034Z,20.27
2022-10-26T05:51:05.683Z,18.60
2022-10-26T05:53:33.154Z,19.33
2022-10-26T05:56:01.098Z,20.77
2022-10-26T05:58:28.610Z,20.02
2022-10-26T06:01:13.816Z,22.30
2022-10-26T06:04:39.046Z,20.27
2022-10-26T06:07:15.199Z,21.58
2022-10-26T06:09:43.092Z,21.77
2022-10-26T06:12:14.396Z,22.35
2022-10-26T06:14:44.579Z,21.75
2022-10-26T06:17:36.492Z,23.63
2022-10-26T06:20:35.687Z,20.13
2022-10-26T06:23:25.283Z,20.75
2022-10-26T06:26:19.331Z,20.17
2022-10-26T06:29:07.330Z,22.33
2022-10-26T06:31:39.417Z,22.48
2022-10-26T06:34:07.007Z,21.67
2022-10-26T06:36:35.498Z,19.88
2022-10-26T06:39:06.611Z,20.13
2022-10-26T06:41:36.006Z,19.55
2022-10-26T06:44:05.175Z,22.17
2022-10-26T06:46:46.243Z,22.83
2022-10-26T06:49:22.268Z,20.83
2022-10-26T06:52:03.098Z,22.30
2022-10-26T06:54:38.409Z,21.52
2022-10-26T06:57:10.501Z,19.77
2022-10-26T06:59:44.445Z,19.25
2022-10-26T07:02:15.182Z,20.30
2022-10-26T07:04:44.365Z,18.95
2022-10-26T07:07:23.342Z,19.75
2022-10-26T07:09:51.725Z,18.10
2022-10-26T07:12:19.186Z,17.65
2022-10-26T07:14:46.994Z,18.27
2022-10-26T07:17:14.886Z,18.35
2022-10-26T07:19:44.792Z,17.95
2022-10-26T07:22:12.218Z,17.08
2022-10-26T07:24:40.374Z,18.70
2022-10-26T07:27:08.600Z,17.88
2022-10-26T07:29:36.436Z,17.45
2022-10-26T07:32:03.768Z,17.88
2022-10-26T07:34:32.296Z,17.17
2022-10-26T07:37:00.733Z,16.98
2022-10-26T07:39:28.656Z,17.35
2022-10-26T07:41:55.994Z,16.50
2022-10-26T07:44:23.645Z,16.38
2022-10-26T07:46:52.154Z,18.05
2022-10-26T07:49:20.012Z,18.17
2022-10-26T07:51:47.810Z,18.67
2022-10-26T07:54:15.389Z,17.70
2022-10-26T07:56:42.905Z,18.00
2022-10-26T07:59:13.323Z,17.15
2022-10-26T08:01:41.121Z,16.92
2022-10-26T08:04:08.490Z,17.30
2022-10-26T08:06:35.773Z,16.08
2022-10-26T08:09:03.674Z,15.13
2022-10-26T08:11:39.096Z,16.60
2022-10-26T08:14:06.721Z,15.23
2022-10-26T08:16:35.081Z,16.17
2022-10-26T08:19:02.550Z,17.00
2022-10-26T08:21:39.165Z,17.67
2022-10-26T08:24:07.122Z,16.55
2022-10-26T08:26:34.712Z,15.57
2022-10-26T08:29:02.224Z,14.90
2022-10-26T08:31:30.831Z,16.08
2022-10-26T08:33:58.262Z,17.08
2022-10-26T08:36:27.847Z,15.95
2022-10-26T08:38:57.293Z,14.70
2022-10-26T08:42:06.551Z,15.23
2022-10-26T08:44:58.648Z,13.40
2022-10-26T08:47:32.054Z,14.98
2022-10-26T08:50:31.895Z,13.90
2022-10-26T08:53:34.772Z,15.90
2022-10-26T08:56:09.594Z,15.20
2022-10-26T08:58:46.929Z,14.75
2022-10-26T09:01:14.541Z,16.98
2022-10-26T09:03:41.865Z,16.23
2022-10-26T09:06:29.123Z,16.13
2022-10-26T09:09:17.721Z,15.38
2022-10-26T09:12:03.858Z,14.23
2022-10-26T09:14:52.523Z,14.48
2022-10-26T09:17:39.994Z,40.90
2022-10-26T09:23:14.559Z,26.13
2022-10-26T09:25:42.411Z,15.88
2022-10-26T09:28:17.865Z,14.35
2022-10-26T09:30:46.519Z,13.07
2022-10-26T09:33:22.847Z,13.60
2022-10-26T09:36:06.916Z,13.33
2022-10-26T09:38:43.635Z,12.77
2022-10-26T09:41:38.465Z,14.70
2022-10-26T09:44:13.171Z,15.48
2022-10-26T09:47:02.347Z,14.35
2022-10-26T09:49:58.969Z,11.00
2022-10-26T09:52:26.230Z,14.77
2022-10-26T09:54:53.889Z,14.95
2022-10-26T09:57:21.729Z,10.32
2022-10-26T09:59:52.648Z,10.23
2022-10-26T10:02:40.365Z,10.98
2022-10-26T10:05:50.405Z,11.20
2022-10-26T10:08:20.210Z,10.63
2022-10-26T10:10:54.612Z,9.48
2022-10-26T10:13:24.555Z,10.45
2022-10-26T10:16:24.892Z,10.95
2022-10-26T10:19:00.514Z,12.07
2022-10-26T10:21:39.556Z,10.80
2022-10-26T10:24:25.146Z,9.98
2022-10-26T10:27:03.209Z,9.85
2022-10-26T10:29:34.303Z,9.95
2022-10-26T10:32:04.132Z,8.68
2022-10-26T10:34:32.475Z,8.95
2022-10-26T10:37:01.610Z,8.18
2022-10-26T10:39:41.958Z,8.40
2022-10-26T10:42:23.368Z,7.65
2022-10-26T10:44:53.724Z,8.55
2022-10-26T10:47:28.882Z,7.80
2022-10-26T10:50:00.916Z,8.48
2022-10-26T10:52:34.495Z,6.60
2022-10-26T10:55:13.885Z,7.32
2022-10-26T10:57:53.407Z,7.18
2022-10-26T11:00:25.060Z,8.13
2022-10-26T11:03:26.031Z,8.05
2022-10-26T11:06:18.905Z,9.27
2022-10-26T11:08:54.678Z,10.30
2022-10-26T11:11:28.849Z,8.23
2022-10-26T11:14:04.723Z,8.20
2022-10-26T11:16:46.244Z,7.70
2022-10-26T11:19:59.287Z,7.95
2022-10-26T11:22:50.081Z,6.95
2022-10-26T11:25:28.541Z,5.93
2022-10-26T11:28:02.904Z,5.80
2022-10-26T11:30:33.863Z,5.63
2022-10-26T11:33:10.436Z,6.10
2022-10-26T11:38:13.455Z,5.65
2022-10-26T11:41:01.951Z,5.37
2022-10-26T11:43:41.457Z,4.88
2022-10-26T11:46:35.894Z,5.95
2022-10-26T11:49:11.791Z,5.95
2022-10-26T11:51:48.966Z,5.70
2022-10-26T11:54:42.634Z,7.00
2022-10-26T11:57:12.534Z,9.25
2022-10-26T11:59:49.603Z,8.40
2022-10-26T12:02:23.316Z,6.93
2022-10-26T12:05:02.222Z,6.07
2022-10-26T12:07:36.447Z,6.75
2022-10-26T12:10:06.728Z,7.72
2022-10-26T12:13:02.504Z,6.38
2022-10-26T12:16:21.326Z,6.68
2022-10-26T12:18:56.370Z,7.55
2022-10-26T12:21:29.713Z,6.38
2022-10-26T12:24:00.069Z,7.78
2022-10-26T12:26:27.238Z,6.90
2022-10-26T12:29:03.770Z,6.07
2022-10-26T12:31:37.229Z,6.13
2022-10-26T12:34:14.475Z,6.32
2022-10-26T12:36:56.785Z,6.50
2022-10-26T12:39:34.504Z,6.45
2022-10-26T12:42:10.857Z,8.10
2022-10-26T12:44:42.555Z,6.72
2022-10-26T12:47:30.941Z,7.32
2022-10-26T12:50:07.275Z,7.88
2022-10-26T12:53:08.378Z,6.82
2022-10-26T12:55:48.711Z,6.40
2022-10-26T12:58:34.924Z,6.70
2022-10-26T13:01:02.281Z,8.40
2022-10-26T13:03:48.120Z,7.60
2022-10-26T13:06:37.366Z,7.90
2022-10-26T13:09:19.879Z,10.07
2022-10-26T13:11:52.741Z,6.82
2022-10-26T13:14:37.167Z,8.45
2022-10-26T13:17:06.636Z,7.38
2022-10-26T13:19:47.081Z,8.45
2022-10-26T13:22:19.305Z,6.55
2022-10-26T13:24:53.864Z,7.00
2022-10-26T13:27:40.578Z,7.80
2022-10-26T13:30:22.697Z,20.47
2022-10-26T13:32:54.468Z,8.55
2022-10-26T13:35:23.955Z,8.00
2022-10-26T13:37:54.433Z,8.20
2022-10-26T13:40:25.887Z,8.07
2022-10-26T13:42:57.144Z,7.43
2022-10-26T13:45:54.078Z,8.25
2022-10-26T13:48:36.377Z,9.20
2022-10-26T13:51:25.593Z,7.80
2022-10-26T13:54:19.691Z,8.45
2022-10-26T13:56:52.897Z,9.88
2022-10-26T13:59:21.040Z,8.63
2022-10-26T14:02:14.628Z,12.05
2022-10-26T14:04:44.984Z,11.70
2022-10-26T14:07:24.149Z,12.07
2022-10-26T14:09:57.469Z,11.88
2022-10-26T14:12:29.100Z,10.20
2022-10-26T14:15:31.217Z,10.05
2022-10-26T14:18:00.645Z,10.05
2022-10-26T14:20:30.128Z,13.00
2022-10-26T14:22:57.534Z,11.65
2022-10-26T14:25:42.162Z,12.27
2022-10-26T14:28:27.319Z,16.77
2022-10-26T14:30:54.792Z,12.55
2022-10-26T14:33:28.650Z,11.60
2022-10-26T14:35:57.013Z,59.83
2022-10-26T14:38:27.158Z,17.02
2022-10-26T14:40:57.729Z,20.38
2022-10-26T14:43:26.030Z,39.10
2022-10-26T14:45:54.573Z,23.58
2022-10-26T14:48:22.285Z,30.85
2022-10-26T14:51:02.321Z,36.03
2022-10-26T14:53:38.974Z,14.23
2022-10-26T14:56:23.603Z,11.38
2022-10-26T14:58:51.922Z,9.95
2022-10-26T15:01:22.227Z,10.85
2022-10-26T15:04:01.486Z,72.47
2022-10-26T15:06:28.726Z,12.80
2022-10-26T15:09:01.060Z,12.35
2022-10-26T15:11:29.709Z,12.63
2022-10-26T15:13:58.118Z,9.85
2022-10-26T15:16:29.782Z,20.90
2022-10-26T15:19:23.754Z,16.60
2022-10-26T15:21:52.496Z,23.50
2022-10-26T15:24:39.428Z,80.93
2022-10-26T15:27:17.129Z,22.00
2022-10-26T15:29:50.558Z,13.25
2022-10-26T15:32:30.881Z,22.25
2022-10-26T15:35:13.452Z,11.85
2022-10-26T15:37:41.104Z,12.20
2022-10-26T15:40:09.060Z,11.98
2022-10-26T15:42:38.317Z,11.32
2022-10-26T15:45:19.952Z,11.85
2022-10-26T15:47:47.670Z,13.18
2022-10-26T15:50:17.129Z,14.27
2022-10-26T15:52:46.780Z,14.25
2022-10-26T15:55:17.722Z,17.77
2022-10-26T15:57:45.136Z,18.20
2022-10-26T16:00:18.109Z,25.23
2022-10-26T16:02:46.113Z,24.45
2022-10-26T16:05:16.265Z,37.10
2022-10-26T16:07:46.691Z,24.08
2022-10-26T16:10:33.784Z,24.38
2022-10-26T16:13:02.126Z,24.05
2022-10-26T16:15:30.569Z,22.50
2022-10-26T16:17:57.703Z,22.42
2022-10-26T16:20:27.715Z,22.27
2022-10-26T16:22:55.315Z,23.83
2022-10-26T16:25:25.699Z,26.20
2022-10-26T16:27:54.995Z,28.48
2022-10-26T16:30:24.856Z,32.38
2022-10-26T16:32:55.438Z,30.80
2022-10-26T16:35:22.948Z,30.80
2022-10-26T16:37:50.418Z,34.17
2022-10-26T16:40:18.117Z,36.70
2022-10-26T16:42:45.706Z,29.38
2022-10-26T16:45:14.902Z,30.20
2022-10-26T16:47:43.321Z,31.17
2022-10-26T16:50:12.992Z,27.33
2022-10-26T16:52:40.549Z,25.75
2022-10-26T16:55:09.182Z,29.38
2022-10-26T16:57:37.493Z,27.13
2022-10-26T17:00:06.675Z,26.70
2022-10-26T17:02:34.270Z,27.77
2022-10-26T17:05:05.901Z,25.45
2022-10-26T17:07:35.732Z,27.05
2022-10-26T17:10:03.603Z,28.52
2022-10-26T17:12:31.551Z,31.08
2022-10-26T17:15:00.617Z,31.55
2022-10-26T17:17:28.742Z,28.48
2022-10-26T17:19:56.521Z,30.13
2022-10-26T17:22:24.275Z,30.77
2022-10-26T17:24:51.749Z,30.75
2022-10-26T17:27:19.277Z,27.63
2022-10-26T17:29:47.279Z,27.95
2022-10-26T17:32:16.336Z,24.58
2022-10-26T17:34:43.849Z,26.67
2022-10-26T17:37:11.018Z,24.02
2022-10-26T17:39:38.480Z,26.63
2022-10-26T17:42:05.753Z,26.52
2022-10-26T17:44:35.156Z,27.45
2022-10-26T17:47:02.399Z,28.73
2022-10-26T17:49:33.619Z,31.38
2022-10-26T17:52:03.597Z,34.85
2022-10-26T17:54:31.123Z,36.38
2022-10-26T17:56:58.828Z,37.40
2022-10-26T17:59:26.403Z,38.10
2022-10-26T18:01:53.669Z,38.72
2022-10-26T18:04:22.431Z,37.92
2022-10-26T18:06:50.692Z,39.30
2022-10-26T18:09:18.327Z,37.65
2022-10-26T18:11:47.329Z,39.35
2022-10-26T18:14:16.367Z,38.80
2022-10-26T18:16:43.497Z,33.45
2022-10-26T18:19:10.927Z,35.55
2022-10-26T18:21:38.339Z,35.10
2022-10-26T18:24:08.189Z,33.20
2022-10-26T18:26:36.282Z,33.40
2022-10-26T18:29:04.813Z,31.73
2022-10-26T18:31:34.867Z,31.35
2022-10-26T18:34:04.181Z,30.67
2022-10-26T18:36:31.994Z,30.85
2022-10-26T18:38:59.805Z,29.90
2022-10-26T18:41:28.034Z,30.75
2022-10-26T18:43:59.135Z,31.65
2022-10-26T18:46:33.878Z,30.77
2022-10-26T18:49:01.843Z,29.80
2022-10-26T18:51:34.604Z,34.28
2022-10-26T18:54:03.332Z,34.13
2022-10-26T18:56:30.964Z,37.13
2022-10-26T18:59:03.267Z,34.10
2022-10-26T19:01:33.774Z,32.55
2022-10-26T19:04:04.104Z,32.47
2022-10-26T19:06:39.718Z,32.25
2022-10-26T19:09:08.247Z,33.00
2022-10-26T19:11:36.008Z,31.77
2022-10-26T19:14:03.976Z,31.15
2022-10-26T19:16:45.336Z,33.40
2022-10-26T19:19:17.172Z,30.35
2022-10-26T19:21:45.972Z,31.80
2022-10-26T19:24:16.559Z,33.17
2022-10-26T19:26:44.698Z,33.38
2022-10-26T19:29:17.005Z,34.72
2022-10-26T19:31:51.740Z,34.38
2022-10-26T19:34:19.721Z,36.60
2022-10-26T19:36:47.530Z,35.35
2022-10-26T19:39:17.007Z,34.83
2022-10-26T19:41:46.181Z,36.92
2022-10-26T19:44:14.806Z,36.47
2022-10-26T19:46:43.455Z,36.63
2022-10-26T19:49:12.968Z,37.42
2022-10-26T19:51:40.870Z,36.58
2022-10-26T19:54:08.955Z,33.95
2022-10-26T19:56:37.533Z,34.90
2022-10-26T19:59:06.052Z,33.85
2022-10-26T20:01:33.407Z,33.90
2022-10-26T20:04:02.735Z,35.58
2022-10-26T20:06:31.054Z,29.38
2022-10-26T20:08:59.133Z,33.05
2022-10-26T20:11:26.537Z,30.45
2022-10-26T20:13:56.413Z,29.27
2022-10-26T20:16:24.997Z,30.15
2022-10-26T20:18:52.570Z,30.27
2022-10-26T20:21:19.954Z,33.50
2022-10-26T20:23:47.963Z,32.30
2022-10-26T20:26:18.787Z,34.58
2022-10-26T20:28:51.113Z,35.33
2022-10-26T20:31:19.872Z,35.38
2022-10-26T20:33:52.789Z,34.30
2022-10-26T20:36:20.495Z,32.70
2022-10-26T20:38:48.480Z,31.88
2022-10-26T20:41:16.555Z,31.95
2022-10-26T20:43:44.198Z,32.25
2022-10-26T20:46:32.204Z,31.88
2022-10-26T20:48:59.847Z,30.23
2022-10-26T20:51:56.723Z,31.02
2022-10-26T20:54:48.921Z,31.60
2022-10-26T20:57:21.015Z,30.33
2022-10-26T20:59:51.959Z,30.80
2022-10-26T21:02:22.153Z,32.85
2022-10-26T21:04:49.673Z,31.88
2022-10-26T21:07:16.834Z,40.95
2022-10-26T21:09:44.451Z,36.42
2022-10-26T21:12:11.982Z,38.95
2022-10-26T21:14:41.014Z,36.20
2022-10-26T21:17:09.150Z,38.25
2022-10-26T21:19:36.864Z,66.50
2022-10-26T21:22:04.128Z,63.20
2022-10-26T21:24:32.339Z,58.35
2022-10-26T21:26:59.578Z,56.90
2022-10-26T21:29:27.017Z,54.95
2022-10-26T21:31:54.150Z,44.08
2022-10-26T21:34:21.583Z,59.42
2022-10-26T21:36:48.873Z,62.67
2022-10-26T21:39:16.200Z,41.08
2022-10-26T21:41:44.279Z,41.50
2022-10-26T21:44:24.584Z,40.20
2022-10-26T21:49:27.228Z,35.42
2022-10-26T21:51:54.940Z,37.15
2022-10-26T21:54:22.484Z,35.83
2022-10-26T21:56:50.158Z,43.05
2022-10-26T21:59:17.641Z,32.63
2022-10-26T22:01:45.219Z,32.67
2022-10-26T22:04:13.162Z,31.85
2022-10-26T22:06:40.942Z,28.40
2022-10-26T22:09:08.611Z,28.20
2022-10-26T22:11:35.878Z,30.52
2022-10-26T22:14:03.337Z,30.25
2022-10-26T22:16:32.850Z,28.20
2022-10-26T22:19:05.676Z,31.27
2022-10-26T22:21:35.599Z,30.05
2022-10-26T22:24:03.433Z,28.42
2022-10-26T22:26:33.074Z,27.65
2022-10-26T22:29:00.764Z,26.55
2022-10-26T22:31:37.622Z,26.70
2022-10-26T22:34:08.321Z,27.20
2022-10-26T22:36:36.040Z,26.60
2022-10-26T22:39:03.943Z,26.52
2022-10-26T22:41:31.572Z,26.33
2022-10-26T22:43:58.923Z,27.63
2022-10-26T22:46:28.012Z,26.75
2022-10-26T22:48:57.511Z,27.70
2022-10-26T22:51:27.294Z,27.38
2022-10-26T22:53:57.393Z,27.67
2022-10-26T22:58:59.544Z,25.20
2022-10-26T23:01:31.494Z,26.80
2022-10-26T23:03:59.829Z,27.20
2022-10-26T23:06:29.835Z,30.65
2022-10-26T23:08:57.314Z,29.17
2022-10-26T23:11:27.045Z,27.67
2022-10-26T23:13:55.762Z,30.67
2022-10-26T23:16:23.272Z,29.80
2022-10-26T23:18:53.234Z,27.17
2022-10-26T23:21:22.910Z,29.10
2022-10-26T23:23:50.360Z,27.08
2022-10-26T23:26:23.839Z,28.48
2022-10-26T23:28:51.546Z,27.98
2022-10-26T23:31:21.055Z,27.60
2022-10-26T23:33:50.535Z,24.85
2022-10-26T23:36:18.271Z,26.52
2022-10-26T23:38:45.890Z,28.92
2022-10-26T23:41:16.216Z,26.65
2022-10-26T23:43:44.113Z,29.05
2022-10-26T23:46:11.391Z,24.75
2022-10-26T23:48:39.263Z,25.58
2022-10-26T23:51:06.433Z,27.83
2022-10-26T23:53:34.477Z,24.42
2022-10-26T23:56:01.852Z,24.17
2022-10-26T23:58:29.430Z,28.40
